Time;durP1;ratioP1;P1;durP2;ratioP2;P2;SDS_P1;SDS_P2;PMS_P1;PMS_P2;Temp;Humidity;BMP_temperature;BMP_pressure;BME280_temperature;BME280_humidity;BME280_pressure;Samples;Min_cycle;Max_cycle;Signal;HPM_P1;HPM_P2
2023/08/05 00:00:32;;;;;;;7.30;2.95;;;16.80;99.90;;;;;;5088103;28;20243;-63
2023/08/05 00:03:00;;;;;;;4.20;2.83;;;16.70;99.90;;;;;;5076371;28;20653;-63
2023/08/05 00:05:28;;;;;;;9.30;2.83;;;16.60;99.90;;;;;;5086997;28;20223;-63
2023/08/05 00:07:57;;;;;;;4.35;2.63;;;16.60;99.90;;;;;;5083063;28;20200;-63
2023/08/05 00:10:25;;;;;;;2.92;2.70;;;16.50;99.90;;;;;;5079052;28;20229;-63
2023/08/05 00:12:53;;;;;;;6.95;3.00;;;16.50;99.90;;;;;;5089797;28;20365;-65
2023/08/05 00:15:21;;;;;;;7.90;3.25;;;16.40;99.90;;;;;;5077400;28;20254;-65
2023/08/05 00:17:49;;;;;;;4.85;2.72;;;16.40;99.90;;;;;;5083806;28;20612;-65
2023/08/05 00:20:17;;;;;;;10.13;3.00;;;16.40;99.90;;;;;;5072487;28;20240;-64
2023/08/05 00:22:45;;;;;;;5.25;3.03;;;16.40;99.90;;;;;;5072898;28;20201;-65
2023/08/05 00:25:14;;;;;;;3.95;2.97;;;16.30;99.90;;;;;;5088547;28;20640;-64
2023/08/05 00:27:42;;;;;;;9.18;3.15;;;16.30;99.90;;;;;;5080769;28;20232;-65
2023/08/05 00:30:10;;;;;;;5.60;2.95;;;16.20;99.90;;;;;;5080270;28;20221;-64
2023/08/05 00:32:38;;;;;;;7.30;2.88;;;16.20;99.90;;;;;;5076557;28;20288;-64
2023/08/05 00:35:07;;;;;;;3.58;3.08;;;16.20;99.90;;;;;;5072334;28;20186;-65
2023/08/05 00:37:36;;;;;;;8.90;3.05;;;16.20;99.90;;;;;;5076173;28;20270;-64
2023/08/05 00:40:05;;;;;;;7.95;4.68;;;16.10;99.90;;;;;;5083435;28;20220;-66
2023/08/05 00:42:34;;;;;;;14.95;6.93;;;16.10;99.90;;;;;;5077337;28;20251;-65
2023/08/05 00:45:03;;;;;;;8.52;5.95;;;16.10;99.90;;;;;;5076076;28;20288;-66
2023/08/05 00:47:31;;;;;;;14.55;5.80;;;16.10;99.90;;;;;;5072225;28;20205;-66
2023/08/05 00:49:59;;;;;;;15.52;6.13;;;16.10;99.90;;;;;;5082599;28;20224;-66
2023/08/05 00:52:27;;;;;;;7.40;4.35;;;16.10;99.90;;;;;;5077957;28;20642;-66
2023/08/05 00:54:55;;;;;;;11.35;5.80;;;16.00;99.90;;;;;;5088557;28;20261;-66
2023/08/05 00:57:23;;;;;;;17.30;5.68;;;16.00;99.90;;;;;;5077365;28;20718;-65
2023/08/05 00:59:52;;;;;;;10.35;5.80;;;16.00;99.90;;;;;;5082987;28;20221;-66
2023/08/05 01:02:20;;;;;;;6.55;4.40;;;16.00;99.90;;;;;;5085448;28;20277;-66
2023/08/05 01:04:48;;;;;;;5.97;3.70;;;16.00;99.90;;;;;;5091552;28;20347;-66
2023/08/05 01:07:16;;;;;;;7.30;3.45;;;16.00;99.90;;;;;;5071575;28;20221;-66
2023/08/05 01:09:43;;;;;;;4.70;3.47;;;16.00;99.90;;;;;;5071620;28;20249;-66
2023/08/05 01:12:11;;;;;;;13.43;4.00;;;15.90;99.90;;;;;;5083551;28;20232;-66
2023/08/05 01:14:39;;;;;;;7.45;3.35;;;15.90;99.90;;;;;;5075778;28;20202;-66
2023/08/05 01:17:08;;;;;;;7.72;3.17;;;15.90;99.90;;;;;;5088492;28;20228;-66
2023/08/05 01:19:36;;;;;;;6.20;3.17;;;15.90;99.90;;;;;;5079057;28;20311;-66
2023/08/05 01:22:12;;;;;;;5.00;2.88;;;15.90;99.90;;;;;;5080560;28;20296;-65
2023/08/05 01:24:43;;;;;;;4.53;2.63;;;15.90;99.90;;;;;;5087786;28;20238;-64
2023/08/05 01:27:12;;;;;;;5.38;2.85;;;15.90;99.90;;;;;;5058654;28;20248;-62
2023/08/05 01:29:40;;;;;;;5.32;2.90;;;15.90;99.90;;;;;;5083869;28;20216;-63
2023/08/05 01:32:08;;;;;;;4.65;2.40;;;15.90;99.90;;;;;;5083206;28;20200;-63
2023/08/05 01:34:36;;;;;;;4.05;3.00;;;15.80;99.90;;;;;;5075835;28;20232;-63
2023/08/05 01:37:04;;;;;;;4.80;2.72;;;15.90;99.90;;;;;;5087947;28;20262;-63
2023/08/05 01:39:32;;;;;;;4.45;2.33;;;15.90;99.90;;;;;;5078465;28;20255;-63
2023/08/05 01:42:00;;;;;;;3.35;2.33;;;15.90;99.90;;;;;;5081112;28;20252;-64
2023/08/05 01:44:29;;;;;;;3.65;2.10;;;15.90;99.90;;;;;;5086045;28;20208;-63
2023/08/05 01:46:57;;;;;;;4.88;2.47;;;15.90;99.90;;;;;;5072621;28;20304;-63
2023/08/05 01:49:25;;;;;;;8.60;2.38;;;15.90;99.90;;;;;;5076849;28;20273;-63
2023/08/05 01:51:53;;;;;;;5.00;2.20;;;15.90;99.90;;;;;;5081988;28;20205;-63
2023/08/05 01:54:21;;;;;;;4.82;2.53;;;15.90;99.90;;;;;;5085005;28;20196;-63
2023/08/05 01:56:49;;;;;;;3.13;2.63;;;16.00;99.90;;;;;;5074572;28;20233;-64
2023/08/05 01:59:17;;;;;;;3.78;2.55;;;16.00;99.90;;;;;;5086946;28;20220;-63
2023/08/05 02:01:47;;;;;;;5.85;2.90;;;16.00;99.90;;;;;;5079500;28;20249;-63
2023/08/05 02:04:15;;;;;;;3.53;2.40;;;16.00;99.90;;;;;;5079104;28;20259;-63
2023/08/05 02:06:43;;;;;;;2.80;2.40;;;15.90;99.90;;;;;;5087556;28;20220;-63
2023/08/05 02:09:11;;;;;;;3.50;2.60;;;15.90;99.90;;;;;;5087805;28;20308;-64
2023/08/05 02:11:38;;;;;;;2.42;2.20;;;15.90;99.90;;;;;;5078803;28;20288;-63
2023/08/05 02:14:06;;;;;;;2.72;2.45;;;15.90;99.90;;;;;;5079855;28;20236;-63
2023/08/05 02:16:34;;;;;;;3.22;2.60;;;15.90;99.90;;;;;;5086332;28;20247;-63
2023/08/05 02:19:03;;;;;;;2.40;2.30;;;15.90;99.90;;;;;;5074687;28;20229;-63
2023/08/05 02:21:31;;;;;;;5.07;2.88;;;15.90;99.90;;;;;;5084734;28;20250;-63
2023/08/05 02:23:59;;;;;;;4.00;2.85;;;15.90;99.90;;;;;;5081662;28;20288;-64
2023/08/05 02:26:27;;;;;;;5.32;2.60;;;15.90;99.90;;;;;;5076426;28;20271;-64
2023/08/05 02:28:55;;;;;;;6.10;2.55;;;15.80;99.90;;;;;;5087503;28;20232;-64
2023/08/05 02:31:23;;;;;;;3.28;2.60;;;15.80;99.90;;;;;;5076622;28;20204;-64
2023/08/05 02:33:51;;;;;;;3.10;2.22;;;15.80;99.90;;;;;;5082083;28;20211;-65
2023/08/05 02:36:20;;;;;;;2.58;2.38;;;15.80;99.90;;;;;;5083580;28;20286;-64
2023/08/05 02:38:48;;;;;;;7.13;2.28;;;15.80;99.90;;;;;;5074743;28;20292;-65
2023/08/05 02:41:16;;;;;;;4.75;2.40;;;15.70;99.90;;;;;;5090227;28;20255;-65
2023/08/05 02:43:44;;;;;;;4.68;2.22;;;15.70;99.90;;;;;;5082864;28;20236;-65
2023/08/05 02:46:12;;;;;;;5.75;2.20;;;15.70;99.90;;;;;;5082180;28;20282;-65
2023/08/05 02:48:39;;;;;;;3.78;2.00;;;15.70;99.90;;;;;;5074592;28;20205;-65
2023/08/05 02:51:07;;;;;;;3.28;2.38;;;15.80;99.90;;;;;;5091203;28;20193;-64
2023/08/05 02:53:37;;;;;;;4.60;2.47;;;15.80;99.90;;;;;;5081689;28;20235;-65
2023/08/05 02:56:05;;;;;;;2.15;1.98;;;15.80;99.90;;;;;;5082734;28;20232;-65
2023/08/05 02:58:33;;;;;;;3.03;1.95;;;15.70;99.90;;;;;;5089657;28;20659;-64
2023/08/05 03:01:07;;;;;;;7.43;2.20;;;15.70;99.90;;;;;;5077591;28;20233;-65
2023/08/05 03:03:35;;;;;;;5.90;2.10;;;15.70;99.90;;;;;;5080790;28;20334;-65
2023/08/05 03:06:03;;;;;;;4.45;2.30;;;15.70;99.90;;;;;;5084887;28;20220;-64
2023/08/05 03:08:31;;;;;;;3.42;2.00;;;15.70;99.90;;;;;;5094697;28;20274;-64
2023/08/05 03:11:01;;;;;;;2.30;1.85;;;15.60;99.90;;;;;;5077534;28;20221;-64
2023/08/05 03:13:29;;;;;;;2.47;2.22;;;15.70;99.90;;;;;;5088056;28;20205;-64
2023/08/05 03:15:57;;;;;;;2.17;1.98;;;15.60;99.90;;;;;;5073502;28;20621;-65
2023/08/05 03:18:25;;;;;;;5.65;2.20;;;15.60;99.90;;;;;;5088014;28;20204;-65
2023/08/05 03:20:52;;;;;;;2.70;2.45;;;15.70;99.90;;;;;;5085130;22;20261;-77
2023/08/05 03:23:20;;;;;;;4.13;2.60;;;15.70;99.90;;;;;;5053777;28;20271;-77
2023/08/05 03:25:48;;;;;;;3.38;2.13;;;15.70;99.90;;;;;;5044532;28;20256;-77
2023/08/05 03:28:17;;;;;;;2.67;2.22;;;15.60;99.90;;;;;;5046332;28;20230;-77
2023/08/05 03:30:45;;;;;;;5.65;1.80;;;15.60;99.90;;;;;;5037302;28;20210;-77
2023/08/05 03:33:15;;;;;;;11.27;2.38;;;15.70;99.90;;;;;;5049076;28;20199;-77
2023/08/05 03:35:43;;;;;;;9.25;2.10;;;15.70;99.90;;;;;;5040963;28;20236;-78
2023/08/05 03:38:11;;;;;;;12.15;1.98;;;15.60;99.90;;;;;;5041605;28;20325;-77
2023/08/05 03:40:39;;;;;;;3.65;2.13;;;15.60;99.90;;;;;;5049320;28;20296;-77
2023/08/05 03:43:07;;;;;;;7.47;2.13;;;15.50;99.90;;;;;;5037053;28;20233;-78
2023/08/05 03:45:36;;;;;;;8.23;1.95;;;15.50;99.90;;;;;;5052512;28;20267;-78
2023/08/05 03:48:05;;;;;;;7.18;2.50;;;15.40;99.90;;;;;;5048310;28;20236;-78
2023/08/05 03:50:33;;;;;;;2.60;2.05;;;15.30;99.90;;;;;;5052335;28;20248;-78
2023/08/05 03:53:00;;;;;;;5.38;2.15;;;15.30;99.90;;;;;;5053310;28;20647;-78
2023/08/05 03:55:28;;;;;;;6.72;2.10;;;15.30;99.90;;;;;;5052413;28;20256;-78
2023/08/05 03:57:57;;;;;;;5.75;2.08;;;15.30;99.90;;;;;;5043176;28;20560;-78
2023/08/05 04:00:25;;;;;;;8.40;2.20;;;15.20;99.90;;;;;;5046685;28;20347;-78
2023/08/05 04:02:54;;;;;;;7.05;2.53;;;15.20;99.90;;;;;;5036256;28;20206;-78
2023/08/05 04:05:22;;;;;;;7.00;2.47;;;15.10;99.90;;;;;;5047654;28;20741;-78
2023/08/05 04:07:50;;;;;;;9.27;2.30;;;15.10;99.90;;;;;;5041792;28;20249;-78
2023/08/05 04:10:21;;;;;;;4.80;2.13;;;15.10;99.90;;;;;;5040478;28;20234;-79
2023/08/05 04:12:49;;;;;;;8.27;2.30;;;15.00;99.90;;;;;;5053732;28;20655;-79
2023/08/05 04:15:18;;;;;;;6.05;2.25;;;15.00;99.90;;;;;;5042318;28;20229;-79
2023/08/05 04:17:47;;;;;;;8.15;2.20;;;15.00;99.90;;;;;;5048859;28;20199;-79
2023/08/05 04:20:18;;;;;;;6.70;2.67;;;15.00;99.90;;;;;;5060690;28;20216;-79
2023/08/05 04:22:49;;;;;;;6.60;3.03;;;15.00;99.90;;;;;;5061086;28;20243;-79
2023/08/05 04:25:17;;;;;;;4.18;2.38;;;14.90;99.90;;;;;;5071288;28;20277;-78
2023/08/05 04:27:44;;;;;;;7.63;2.63;;;14.90;99.90;;;;;;5060362;28;20282;-78
2023/08/05 04:30:12;;;;;;;8.48;2.65;;;14.90;99.90;;;;;;5060341;28;20256;-78
2023/08/05 04:32:40;;;;;;;9.30;2.55;;;14.90;99.90;;;;;;5068401;28;20206;-78
2023/08/05 04:35:09;;;;;;;4.30;2.70;;;14.90;99.90;;;;;;5055598;28;20237;-77
2023/08/05 04:37:38;;;;;;;4.22;2.45;;;14.90;99.90;;;;;;5064674;28;20205;-78
2023/08/05 04:40:07;;;;;;;3.20;2.55;;;14.90;99.90;;;;;;5063216;28;20221;-78
2023/08/05 04:42:35;;;;;;;7.75;2.83;;;14.90;99.90;;;;;;5056708;28;20224;-78
2023/08/05 04:45:03;;;;;;;3.90;2.38;;;14.90;99.90;;;;;;5068167;28;20736;-78
2023/08/05 04:47:31;;;;;;;3.45;2.28;;;14.90;99.90;;;;;;5083238;28;20225;-77
2023/08/05 04:49:59;;;;;;;8.35;2.65;;;14.90;99.90;;;;;;5071907;28;20702;-77
2023/08/05 04:52:27;;;;;;;6.30;2.50;;;14.90;99.90;;;;;;5057854;28;20259;-78
2023/08/05 04:54:57;;;;;;;5.65;2.38;;;14.90;99.90;;;;;;5068302;28;20293;-78
2023/08/05 04:57:25;;;;;;;6.25;2.20;;;14.90;99.90;;;;;;5065051;28;20662;-78
2023/08/05 04:59:52;;;;;;;5.25;2.58;;;14.90;99.90;;;;;;5070900;28;20274;-79
2023/08/05 05:02:20;;;;;;;6.43;2.53;;;14.90;99.90;;;;;;5070390;28;20205;-79
2023/08/05 05:04:48;;;;;;;4.63;2.30;;;14.90;99.90;;;;;;5070355;28;20288;-79
2023/08/05 05:07:16;;;;;;;5.03;2.55;;;14.90;99.90;;;;;;5054568;28;20201;-77
2023/08/05 05:09:44;;;;;;;2.70;2.50;;;14.90;99.90;;;;;;5071813;28;20232;-77
2023/08/05 05:12:13;;;;;;;7.03;3.10;;;14.90;99.90;;;;;;5059525;28;20288;-77
2023/08/05 05:14:43;;;;;;;7.30;2.75;;;15.00;99.90;;;;;;5067751;28;20269;-78
2023/08/05 05:17:11;;;;;;;4.88;2.55;;;15.00;99.90;;;;;;5071520;28;20233;-78
2023/08/05 05:19:39;;;;;;;7.95;2.25;;;15.00;99.90;;;;;;5063674;28;20279;-76
2023/08/05 05:22:07;;;;;;;4.10;2.50;;;15.00;99.90;;;;;;5062894;28;20205;-77
2023/08/05 05:24:35;;;;;;;4.93;2.35;;;15.00;99.90;;;;;;5071502;28;20255;-79
2023/08/05 05:27:03;;;;;;;8.43;3.10;;;15.10;99.90;;;;;;5055631;28;20285;-78
2023/08/05 05:29:32;;;;;;;6.15;3.03;;;15.10;99.90;;;;;;5063348;28;20275;-79
2023/08/05 05:32:00;;;;;;;8.80;2.63;;;15.10;99.90;;;;;;5059963;28;20197;-78
2023/08/05 05:34:28;;;;;;;10.85;2.53;;;15.20;99.90;;;;;;5066851;28;20735;-77
2023/08/05 05:36:56;;;;;;;7.72;2.45;;;15.20;99.90;;;;;;5070528;28;20732;-77
2023/08/05 05:39:23;;;;;;;6.57;2.75;;;15.30;99.90;;;;;;5066288;28;20304;-78
2023/08/05 05:41:51;;;;;;;10.55;2.78;;;15.30;99.90;;;;;;5070683;28;20209;-78
2023/08/05 05:44:19;;;;;;;7.05;2.97;;;15.30;99.90;;;;;;5070921;28;20239;-79
2023/08/05 05:46:48;;;;;;;7.10;3.22;;;15.40;99.90;;;;;;5079998;28;20237;-81
2023/08/05 05:49:18;;;;;;;8.90;2.92;;;15.30;99.90;;;;;;5069207;28;20674;-81
2023/08/05 05:51:47;;;;;;;7.45;3.55;;;15.40;99.90;;;;;;5069514;28;20201;-77
2023/08/05 05:54:15;;;;;;;10.27;4.68;;;15.50;99.90;;;;;;5070677;28;20197;-77
2023/08/05 05:56:43;;;;;;;7.38;4.20;;;15.50;99.90;;;;;;5070238;28;20292;-78
2023/08/05 05:59:11;;;;;;;8.45;3.92;;;15.60;99.90;;;;;;5070006;28;20722;-77
2023/08/05 06:01:39;;;;;;;7.07;4.90;;;15.70;99.90;;;;;;5069917;28;20229;-72
2023/08/05 06:04:09;;;;;;;9.68;5.07;;;15.70;99.90;;;;;;5068021;28;20198;-73
2023/08/05 06:06:37;;;;;;;6.53;4.85;;;15.80;99.90;;;;;;5070043;28;20673;-73
2023/08/05 06:09:07;;;;;;;11.23;5.32;;;15.80;99.90;;;;;;5069645;28;20221;-72
2023/08/05 06:11:34;;;;;;;9.63;5.18;;;15.90;99.90;;;;;;5070634;28;20201;-73
2023/08/05 06:14:04;;;;;;;8.88;4.70;;;16.00;99.90;;;;;;5071215;28;20278;-73
2023/08/05 06:16:32;;;;;;;8.85;4.90;;;16.10;99.90;;;;;;5071323;28;20216;-74
2023/08/05 06:19:03;;;;;;;9.88;5.40;;;16.10;99.90;;;;;;5072390;28;20256;-73
2023/08/05 06:21:32;;;;;;;11.80;5.43;;;16.20;99.90;;;;;;5073517;28;20682;-73
2023/08/05 06:24:00;;;;;;;6.90;5.10;;;16.20;99.90;;;;;;5074171;28;20197;-73
2023/08/05 06:26:29;;;;;;;10.20;6.28;;;16.30;99.90;;;;;;5073197;28;20201;-72
2023/08/05 06:28:57;;;;;;;10.45;6.07;;;16.30;99.90;;;;;;5058111;28;20232;-70
2023/08/05 06:31:24;;;;;;;12.48;5.88;;;16.40;99.90;;;;;;5068850;28;20206;-71
2023/08/05 06:33:52;;;;;;;7.88;5.60;;;16.40;99.90;;;;;;5063823;28;20670;-71
2023/08/05 06:36:20;;;;;;;6.43;4.90;;;16.50;99.90;;;;;;5072802;28;20237;-70
2023/08/05 06:38:49;;;;;;;8.45;5.13;;;16.60;99.90;;;;;;5074092;28;20263;-69
2023/08/05 06:41:18;;;;;;;6.35;4.30;;;16.60;99.90;;;;;;5069649;28;20675;-70
2023/08/05 06:43:46;;;;;;;6.63;5.32;;;16.70;99.90;;;;;;5068591;28;20279;-70
2023/08/05 06:46:14;;;;;;;7.65;4.90;;;16.80;99.90;;;;;;5074154;28;20233;-70
2023/08/05 06:48:42;;;;;;;7.93;5.00;;;16.80;99.90;;;;;;5073270;28;20229;-70
2023/08/05 06:51:10;;;;;;;9.15;4.97;;;16.90;99.90;;;;;;5072679;28;20236;-70
2023/08/05 06:53:41;;;;;;;9.52;5.30;;;16.90;99.90;;;;;;5073075;28;20225;-70
2023/08/05 06:56:10;;;;;;;10.68;5.15;;;17.00;99.90;;;;;;5072371;28;20247;-70
2023/08/05 06:58:38;;;;;;;9.10;4.80;;;17.00;99.90;;;;;;5069382;28;20306;-70
2023/08/05 07:01:06;;;;;;;4.85;4.13;;;17.10;99.90;;;;;;5072409;28;20236;-71
2023/08/05 07:03:33;;;;;;;9.95;4.30;;;17.20;99.90;;;;;;5072706;28;20197;-71
2023/08/05 07:06:01;;;;;;;5.88;3.88;;;17.20;99.90;;;;;;5072232;28;20258;-73
2023/08/05 07:08:29;;;;;;;4.65;2.97;;;17.20;99.90;;;;;;5073515;28;20216;-71
2023/08/05 07:10:57;;;;;;;6.22;3.63;;;17.30;99.90;;;;;;5072999;28;20231;-74
2023/08/05 07:13:27;;;;;;;5.05;3.75;;;17.40;99.90;;;;;;5072493;28;20237;-71
2023/08/05 07:15:59;;;;;;;4.35;3.55;;;17.40;99.90;;;;;;5072806;28;20259;-71
2023/08/05 07:18:27;;;;;;;5.55;3.40;;;17.50;99.90;;;;;;5059202;28;20222;-70
2023/08/05 07:20:55;;;;;;;4.20;2.80;;;17.60;99.90;;;;;;5069994;28;20262;-68
2023/08/05 07:23:22;;;;;;;4.47;1.95;;;17.70;99.90;;;;;;5059086;28;20201;-68
2023/08/05 07:25:50;;;;;;;6.45;2.85;;;17.90;99.90;;;;;;5062994;28;20285;-69
2023/08/05 07:28:18;;;;;;;7.38;2.70;;;18.10;99.90;;;;;;5066310;28;20248;-69
2023/08/05 07:30:47;;;;;;;2.75;2.55;;;18.20;99.90;;;;;;5056708;28;20229;-69
2023/08/05 07:33:17;;;;;;;4.22;2.63;;;18.40;99.90;;;;;;5068412;28;20229;-68
2023/08/05 07:35:45;;;;;;;3.67;1.95;;;18.60;99.90;;;;;;5061482;28;20197;-68
2023/08/05 07:38:13;;;;;;;2.60;2.40;;;18.70;99.90;;;;;;5060589;28;20734;-69
2023/08/05 07:40:41;;;;;;;2.95;2.65;;;18.80;99.90;;;;;;5069444;28;20193;-68
2023/08/05 07:43:09;;;;;;;7.70;2.72;;;18.80;99.90;;;;;;5056642;28;20590;-69
2023/08/05 07:45:37;;;;;;;6.47;2.25;;;18.80;99.90;;;;;;5075773;28;20302;-69
2023/08/05 07:48:09;;;;;;;4.65;2.65;;;19.00;99.90;;;;;;5082452;28;20232;-68
2023/08/05 07:50:36;;;;;;;3.85;2.45;;;19.10;99.90;;;;;;5073011;28;20694;-71
2023/08/05 07:53:05;;;;;;;3.00;2.40;;;19.10;99.90;;;;;;5056223;28;20236;-69
2023/08/05 07:55:35;;;;;;;5.50;2.58;;;19.20;99.90;;;;;;5065667;28;20197;-69
2023/08/05 07:58:04;;;;;;;4.13;2.20;;;19.20;99.90;;;;;;5063300;28;20274;-69
2023/08/05 08:00:33;;;;;;;4.60;3.35;;;19.30;99.90;;;;;;5057909;28;20197;-68
2023/08/05 08:03:01;;;;;;;2.10;2.00;;;19.40;99.90;;;;;;5069365;28;20216;-69
2023/08/05 08:05:30;;;;;;;3.88;2.00;;;19.40;99.90;;;;;;5058591;28;20203;-69
2023/08/05 08:08:00;;;;;;;2.25;1.95;;;19.50;99.90;;;;;;5062188;28;20198;-68
2023/08/05 08:10:28;;;;;;;4.28;2.78;;;19.50;99.90;;;;;;5066734;28;20221;-69
2023/08/05 08:12:55;;;;;;;6.25;3.00;;;19.60;99.90;;;;;;5055667;28;20636;-68
2023/08/05 08:15:23;;;;;;;3.38;2.90;;;19.60;99.90;;;;;;5066934;28;20229;-69
2023/08/05 08:17:51;;;;;;;3.67;2.92;;;19.50;99.90;;;;;;5061705;28;20350;-69
2023/08/05 08:20:19;;;;;;;8.23;2.83;;;19.60;99.90;;;;;;5059254;28;20205;-69
2023/08/05 08:22:48;;;;;;;2.42;2.22;;;19.70;99.90;;;;;;5070568;28;20201;-68
2023/08/05 08:25:16;;;;;;;4.00;2.83;;;19.80;99.90;;;;;;5071662;28;20236;-69
2023/08/05 08:27:44;;;;;;;3.95;2.33;;;20.00;99.90;;;;;;5072178;28;20284;-69
2023/08/05 08:30:12;;;;;;;2.63;2.05;;;20.10;99.90;;;;;;5060221;28;20281;-68
2023/08/05 08:32:40;;;;;;;6.07;2.63;;;20.20;99.90;;;;;;5068104;28;20204;-69
2023/08/05 08:35:09;;;;;;;6.82;2.42;;;20.40;99.90;;;;;;5055182;28;20203;-69
2023/08/05 08:37:40;;;;;;;2.65;2.42;;;20.40;99.90;;;;;;5063632;28;20201;-69
2023/08/05 08:40:11;;;;;;;5.25;2.00;;;20.40;99.90;;;;;;5063744;28;20254;-68
2023/08/05 08:42:39;;;;;;;3.58;1.95;;;20.40;99.90;;;;;;5069927;28;20209;-69
2023/08/05 08:45:09;;;;;;;2.88;1.98;;;20.50;99.90;;;;;;5070950;28;20641;-69
2023/08/05 08:47:37;;;;;;;1.70;1.48;;;20.60;99.90;;;;;;5069666;28;20205;-68
2023/08/05 08:50:06;;;;;;;2.67;1.67;;;20.50;99.90;;;;;;5071322;28;20232;-69
2023/08/05 08:52:34;;;;;;;2.67;2.05;;;20.40;99.90;;;;;;5071541;28;20701;-69
2023/08/05 08:55:03;;;;;;;2.17;1.67;;;20.50;99.90;;;;;;5069266;28;20239;-69
2023/08/05 08:57:32;;;;;;;1.50;1.40;;;20.60;99.90;;;;;;5058126;28;20233;-69
2023/08/05 09:00:00;;;;;;;2.08;1.80;;;20.70;99.90;;;;;;5061080;28;20313;-70
2023/08/05 09:02:29;;;;;;;3.45;2.28;;;20.80;99.90;;;;;;5065885;28;20200;-69
2023/08/05 09:04:57;;;;;;;4.50;1.95;;;20.90;99.90;;;;;;5054855;28;20948;-69
2023/08/05 09:07:27;;;;;;;2.72;1.80;;;21.00;99.90;;;;;;5066052;28;20237;-69
2023/08/05 09:09:57;;;;;;;5.25;1.63;;;21.00;99.90;;;;;;5061402;28;20330;-69
2023/08/05 09:12:25;;;;;;;3.33;1.40;;;21.00;99.90;;;;;;5057259;28;20213;-69
2023/08/05 09:14:54;;;;;;;1.83;1.73;;;21.10;99.90;;;;;;5067817;28;20239;-71
2023/08/05 09:17:22;;;;;;;4.05;1.70;;;21.20;99.90;;;;;;5055112;28;20287;-69
2023/08/05 09:19:50;;;;;;;5.28;1.35;;;21.30;99.90;;;;;;5060009;28;20789;-68
2023/08/05 09:22:17;;;;;;;1.83;1.10;;;21.40;99.90;;;;;;5064240;28;20292;-69
2023/08/05 09:24:45;;;;;;;1.90;1.35;;;21.50;99.90;;;;;;5054224;28;20295;-69
2023/08/05 09:27:13;;;;;;;2.25;1.38;;;21.70;99.90;;;;;;5067130;28;20197;-69
2023/08/05 09:29:41;;;;;;;3.25;1.30;;;21.90;99.90;;;;;;5067977;28;20302;-69
2023/08/05 09:32:10;;;;;;;2.42;1.50;;;22.10;99.90;;;;;;5059223;28;20288;-69
2023/08/05 09:34:41;;;;;;;1.85;1.00;;;22.20;99.90;;;;;;5066933;28;20205;-69
2023/08/05 09:37:10;;;;;;;1.42;1.30;;;22.30;99.90;;;;;;5054497;28;20283;-69
2023/08/05 09:39:45;;;;;;;1.35;0.98;;;22.60;99.90;;;;;;5063618;28;20653;-70
2023/08/05 09:42:19;;;;;;;7.63;1.38;;;22.70;99.90;;;;;;5062991;28;20207;-69
2023/08/05 09:44:47;;;;;;;1.48;0.95;;;22.80;99.90;;;;;;5054392;28;20708;-69
2023/08/05 09:47:20;;;;;;;1.88;1.23;;;23.00;99.90;;;;;;5082996;28;20200;-69
2023/08/05 09:49:49;;;;;;;1.42;1.10;;;23.10;99.90;;;;;;5070010;28;20248;-68
2023/08/05 09:52:17;;;;;;;1.85;0.98;;;23.10;99.90;;;;;;5070820;28;20200;-69
2023/08/05 09:54:47;;;;;;;1.40;1.30;;;23.20;99.90;;;;;;5070169;28;20666;-69
2023/08/05 09:57:15;;;;;;;4.55;1.33;;;23.30;99.90;;;;;;5055124;28;20287;-68
2023/08/05 09:59:43;;;;;;;1.27;1.10;;;23.40;99.90;;;;;;5062466;28;20707;-69
2023/08/05 10:02:12;;;;;;;3.08;1.35;;;23.50;99.90;;;;;;5062552;28;20287;-68
2023/08/05 10:04:42;;;;;;;2.35;1.25;;;23.70;99.90;;;;;;5054647;28;20650;-69
2023/08/05 10:07:10;;;;;;;1.25;1.10;;;24.00;99.90;;;;;;5053189;28;20204;-69
2023/08/05 10:09:39;;;;;;;4.75;1.10;;;24.20;99.90;;;;;;5070984;28;20226;-69
2023/08/05 10:12:07;;;;;;;5.05;1.13;;;24.20;99.90;;;;;;5059199;28;20233;-69
2023/08/05 10:14:35;;;;;;;4.05;1.08;;;24.30;99.90;;;;;;5066204;28;20291;-69
2023/08/05 10:17:04;;;;;;;1.75;1.13;;;24.40;99.90;;;;;;5054065;28;20749;-69
2023/08/05 10:19:32;;;;;;;1.10;0.95;;;24.50;99.90;;;;;;5064341;28;20790;-69
2023/08/05 10:22:09;;;;;;;2.47;0.90;;;24.70;99.90;;;;;;5060886;28;20200;-69
2023/08/05 10:24:53;;;;;;;1.60;0.90;;;24.80;99.90;;;;;;5054795;28;20304;-69
2023/08/05 10:27:37;;;;;;;1.85;1.08;;;24.90;99.90;;;;;;5055767;28;20201;-69
2023/08/05 10:30:06;;;;;;;3.90;1.38;;;25.10;99.90;;;;;;5070455;28;20244;-69
2023/08/05 10:32:35;;;;;;;1.23;1.10;;;25.20;99.90;;;;;;5055341;28;20202;-69
2023/08/05 10:35:29;;;;;;;2.80;2.17;;;25.30;99.90;;;;;;5067002;28;20215;-69
2023/08/05 10:38:07;;;;;;;3.22;1.67;;;25.40;99.90;;;;;;5060446;28;20204;-69
2023/08/05 10:40:39;;;;;;;4.05;1.77;;;25.40;99.90;;;;;;5055189;28;20229;-69
2023/08/05 10:43:07;;;;;;;3.53;1.25;;;25.40;99.90;;;;;;5067197;28;20205;-69
2023/08/05 10:45:35;;;;;;;1.15;1.13;;;25.50;99.90;;;;;;5060107;28;20228;-69
2023/08/05 10:48:07;;;;;;;2.72;1.23;;;25.70;99.90;;;;;;5079641;28;20309;-69
2023/08/05 10:50:36;;;;;;;1.48;1.00;;;26.00;99.90;;;;;;5070588;28;20258;-69
2023/08/05 10:53:10;;;;;;;1.52;1.30;;;26.20;99.90;;;;;;5053666;28;20247;-69
2023/08/05 10:55:48;;;;;;;1.35;1.15;;;26.20;99.90;;;;;;5063149;28;20250;-69
2023/08/05 10:58:15;;;;;;;5.28;1.45;;;26.40;99.90;;;;;;5063378;28;20224;-69
2023/08/05 11:00:44;;;;;;;2.78;0.90;;;26.70;99.90;;;;;;5055880;28;20229;-69
2023/08/05 11:03:32;;;;;;;1.40;1.08;;;26.70;99.90;;;;;;5057798;28;20205;-69
2023/08/05 11:06:03;;;;;;;2.28;0.70;;;27.10;99.90;;;;;;5074082;28;20247;-69
2023/08/05 11:08:33;;;;;;;1.00;1.00;;;27.50;99.90;;;;;;5059166;28;20249;-69
2023/08/05 11:11:02;;;;;;;1.13;1.02;;;27.10;99.90;;;;;;5070257;28;20608;-69
2023/08/05 11:13:33;;;;;;;1.90;1.00;;;26.50;99.90;;;;;;5059902;28;20224;-69
2023/08/05 11:16:02;;;;;;;1.08;1.00;;;25.80;99.90;;;;;;5062501;28;20278;-69
2023/08/05 11:18:30;;;;;;;5.40;1.00;;;25.30;99.90;;;;;;5068129;28;20607;-69
2023/08/05 11:20:59;;;;;;;2.67;1.00;;;24.80;99.90;;;;;;5056902;28;20240;-69
2023/08/05 11:23:27;;;;;;;1.15;1.08;;;24.60;99.90;;;;;;5067631;28;20688;-69
2023/08/05 11:25:58;;;;;;;1.00;0.90;;;24.80;99.90;;;;;;5062901;28;20208;-69
2023/08/05 11:28:26;;;;;;;1.27;1.10;;;24.90;99.90;;;;;;5059058;28;20316;-69
2023/08/05 11:30:54;;;;;;;1.08;1.02;;;24.90;99.90;;;;;;5069780;28;20311;-69
2023/08/05 11:33:22;;;;;;;2.08;1.00;;;24.70;99.90;;;;;;5058714;28;20284;-69
2023/08/05 11:35:52;;;;;;;1.00;1.00;;;24.50;99.90;;;;;;5064171;28;20284;-69
2023/08/05 11:38:20;;;;;;;2.90;1.25;;;24.40;99.90;;;;;;5066423;28;20227;-69
2023/08/05 11:40:48;;;;;;;1.88;1.15;;;24.40;99.90;;;;;;5056644;28;20201;-69
2023/08/05 11:43:19;;;;;;;1.95;1.20;;;24.50;99.90;;;;;;5068502;28;20287;-69
2023/08/05 11:45:47;;;;;;;5.93;1.20;;;24.60;99.90;;;;;;5065348;28;20224;-69
2023/08/05 11:48:22;;;;;;;2.85;1.30;;;24.60;99.90;;;;;;5080665;28;20299;-69
2023/08/05 11:50:50;;;;;;;1.70;1.20;;;24.30;99.90;;;;;;5071939;28;20245;-69
2023/08/05 11:53:19;;;;;;;1.90;1.15;;;24.10;99.90;;;;;;5057533;28;20228;-69
2023/08/05 11:55:47;;;;;;;1.42;1.20;;;23.90;99.90;;;;;;5064157;28;20193;-69
2023/08/05 11:58:15;;;;;;;1.10;1.00;;;23.70;99.90;;;;;;5064213;28;20225;-69
2023/08/05 12:00:48;;;;;;;2.10;1.20;;;23.50;99.90;;;;;;5056644;28;20233;-69
2023/08/05 12:03:16;;;;;;;1.25;1.15;;;23.40;99.90;;;;;;5057336;28;20204;-69
2023/08/05 12:05:44;;;;;;;1.48;1.15;;;23.30;99.90;;;;;;5064362;28;20203;-69
2023/08/05 12:08:12;;;;;;;1.23;1.13;;;23.20;99.90;;;;;;5064770;28;20229;-69
2023/08/05 12:10:40;;;;;;;31.42;10.48;;;23.10;99.90;;;;;;5057029;28;20252;-69
2023/08/05 12:13:09;;;;;;;1.38;1.10;;;23.00;99.90;;;;;;5068455;28;20249;-69
2023/08/05 12:15:38;;;;;;;1.67;1.35;;;23.10;99.90;;;;;;5059780;28;20196;-69
2023/08/05 12:18:07;;;;;;;2.50;1.52;;;23.20;99.90;;;;;;5061206;28;20236;-69
2023/08/05 12:20:36;;;;;;;1.10;1.10;;;23.20;99.90;;;;;;5067767;28;20212;-69
2023/08/05 12:23:05;;;;;;;1.85;1.58;;;23.10;99.90;;;;;;5055998;28;20212;-70
2023/08/05 12:25:34;;;;;;;2.30;1.55;;;23.10;99.90;;;;;;5065820;28;20201;-69
2023/08/05 12:28:03;;;;;;;2.78;1.80;;;23.10;99.90;;;;;;5063281;28;21672;-69
2023/08/05 12:30:33;;;;;;;2.05;1.48;;;23.10;99.90;;;;;;5057359;28;20229;-69
2023/08/05 12:33:02;;;;;;;1.63;1.52;;;23.00;99.90;;;;;;5067325;28;20243;-69
2023/08/05 12:35:34;;;;;;;2.88;2.10;;;23.00;99.90;;;;;;5058277;28;20216;-69
2023/08/05 12:38:02;;;;;;;1.95;1.80;;;23.20;99.90;;;;;;5061470;28;20208;-69
2023/08/05 12:40:30;;;;;;;1.63;1.52;;;23.20;99.90;;;;;;5065724;28;20255;-69
2023/08/05 12:42:58;;;;;;;1.55;1.20;;;23.10;99.90;;;;;;5055512;28;20243;-69
2023/08/05 12:45:26;;;;;;;2.15;1.17;;;23.30;99.90;;;;;;5068341;28;20232;-69
2023/08/05 12:47:54;;;;;;;4.15;1.95;;;23.40;99.90;;;;;;5082609;28;20208;-69
2023/08/05 12:50:22;;;;;;;2.72;1.27;;;24.20;99.90;;;;;;5072238;28;20211;-69
2023/08/05 12:52:51;;;;;;;3.85;1.42;;;25.30;99.90;;;;;;5055429;28;20320;-69